Airfield :
LOGIN :

Register | Disclaimer

   EN    FR    IT 

 










Legend :    VFR   Marginal VFR   IFR   Intensive IFR   Very Intensive IFR
Visi :
Ceiling :
>= 8 km
>= 3000ft
5 to 8 km
1000 to 3000 ft
1500m to 5 km
500 to 1000 ft
800 to 1500m
200 to 500 ft
< 800m
< 200 ft
Symbols :   Thunderstorms  Fog  Heavy snow  Heavy precipitations  Wind > 20 kt
SIGMETs :     Misc.  Thunderstorms  Icing  Turbulence  Mountain Waves  Volcanic Ashes






- Airport Elevation : 36 ft
- IATA code : LTQ


LFAT - Le Touquet

CURRENT METAR :
  • 231830Z AUTO 12007KT 6000 NSC 14/13 Q1008

EXPIRED METARs :
  • 231800Z AUTO 12005KT 6000 NSC 14/13 Q1008 TEMPO BKN013
  • 231730Z AUTO 12004KT 6000 NSC 14/13 Q1008 TEMPO BKN013
  • 231700Z AUTO 10005KT 7000 NSC 14/13 Q1008 TEMPO BKN013
  • 231630Z AUTO 08005KT 7000 NSC 15/13 Q1008 TEMPO BKN013
  • 231600Z AUTO 09004KT 050V120 7000 NSC 15/13 Q1009 TEMPO BKN013

TAF TAF LFAT
Valid from the 23 at 15:00 until the 24 at 00:00 UTC


231400Z 2315/2324 10007KT 9000 SCT015 BKN100
PROB30
TEMPO 2315/2319 BKN013
BECMG 2322/2324 3000 BR BKN008
ATIS : +33 3 21 06 62 84



MET'MAP, your aeronautical weather chart ! - Copyright ORBIFLY December 2007 - Disclaimer

ORBIFLY MET'MAP TEAM :

Programming & Development : Alexandra Zaïnal
Concept & Development : Baudouin d'Aumeries
Co-Development & Prog : Marc-Olivier Méhu
Technical & hardware support : Manuel Goepfert

Contact : metmap@orbifly.com




SOURCES & CREDITS :

   NOAA